Tropical Cyclones
[Index]
Main Index Home Page Stock Weather Photos Extreme Storms Discussion Storm News and Storm Chasing Reports Tropical Cyclones / Hurricanes / Typhoons Weather Data and Links Wild Fires / Bushfires Weather Observation Techniques Weather Picture Catalogue Tornado Pictures and Reports Stock Video Footage and DVDs for sale
Season 2005-2006 Tropical Cyclone TROP-LOW-01 Track Map
Season 2005-2006 Summaries (Operational Data): [AU] [SIO] [SPAC] [SH]
<<- Previous TC | 2005-2006 Season | Next TC ->>

click for intensity scale information  Lat/long Grid: Show Hide

 Date Labels: Show Hide

Operational Tropical Cyclone Data

Name: TROP-LOW-01
Number: 06SE

28 Feb 2006 18:00 UTC to 07 Mar 2006 04:00 UTC

    date/time    lat    long     hPa   cat  kts
2006-02-28 18    8.1   130.4    1001         25          
2006-03-01 00    9.0   129.5    1002         25          
2006-03-01 06   10.2   128.8    1001         25          
2006-03-01 12   10.3   129.3    1001         25          
2006-03-01 18   10.2   129.1    1001         25          
2006-03-02 00   10.1   128.9    1001         25          
2006-03-02 06    9.7   128.1    1001         25          
2006-03-02 12    9.8   127.3    1000         30          
2006-03-02 18   10.6   126.6     998         30          
2006-03-03 00   10.3   127.1    1002         30          
2006-03-03 06    9.6   126.6                 25          
2006-03-03 12    9.3   126.3                 25          
2006-03-03 18    8.9   125.8                 25          
2006-03-04 00    9.1   123.9                 25          
2006-03-04 05   11.3   124.2                 25          
2006-03-05 06   11.3   120.7    1005         25          
2006-03-05 12   11.5   118.8    1002         25          
2006-03-05 18   11.7   118.0    1001         25          
2006-03-06 00   11.7   118.0    1000         25          
2006-03-06 06   12.6   118.0    1000         25          
2006-03-07 04   14.5   121.6    1001         25          
Winds are 10-min average.

Tropical cyclone tracks developed by Michael Bath using operational warnings and advisories and Google Maps.


[Australian Severe Weather index] [Copyright Notice] [Email Contacts] [Search This Site] [Privacy Policy]
Document: tropical_cyclone_trop-low-01.htm Updated: 28 May 2013